createdAt,value
2023-02-11T00:00:15.405Z,3.70
2023-02-11T00:02:41.746Z,5.55
2023-02-11T00:05:08.176Z,5.50
2023-02-11T00:07:35.003Z,5.82
2023-02-11T00:10:02.873Z,5.22
2023-02-11T00:12:29.243Z,4.82
2023-02-11T00:14:55.716Z,5.60
2023-02-11T00:17:22.093Z,6.43
2023-02-11T00:19:51.552Z,4.93
2023-02-11T00:22:18.372Z,4.93
2023-02-11T00:24:44.892Z,5.53
2023-02-11T00:27:11.352Z,5.40
2023-02-11T00:29:38.123Z,6.22
2023-02-11T00:32:05.268Z,5.72
2023-02-11T00:34:32.252Z,5.07
2023-02-11T00:37:01.114Z,6.72
2023-02-11T00:39:27.725Z,5.28
2023-02-11T00:41:54.088Z,5.57
2023-02-11T00:44:23.405Z,5.47
2023-02-11T00:46:49.782Z,5.72
2023-02-11T00:49:16.150Z,5.22
2023-02-11T00:51:42.454Z,6.03
2023-02-11T00:54:08.812Z,4.93
2023-02-11T00:56:35.524Z,4.70
2023-02-11T00:59:02.963Z,6.30
2023-02-11T01:01:29.358Z,5.85
2023-02-11T01:03:58.487Z,5.15
2023-02-11T01:06:25.009Z,6.05
2023-02-11T01:08:51.611Z,4.60
2023-02-11T01:11:19.472Z,5.70
2023-02-11T01:13:46.377Z,5.13
2023-02-11T01:16:13.166Z,5.53
2023-02-11T01:18:40.717Z,6.03
2023-02-11T01:21:07.712Z,5.32
2023-02-11T01:23:34.266Z,5.15
2023-02-11T01:26:00.689Z,5.82
2023-02-11T01:28:29.428Z,6.75
2023-02-11T01:30:56.074Z,7.97
2023-02-11T01:33:23.006Z,5.93
2023-02-11T01:35:50.238Z,6.68
2023-02-11T01:38:19.052Z,5.72
2023-02-11T01:40:49.513Z,5.75
2023-02-11T01:43:16.079Z,6.32
2023-02-11T01:45:42.425Z,5.95
2023-02-11T01:48:10.776Z,5.95
2023-02-11T01:50:37.750Z,5.20
2023-02-11T01:53:24.148Z,6.65
2023-02-11T01:56:09.832Z,6.05
2023-02-11T01:58:37.744Z,7.00
2023-02-11T02:01:05.008Z,6.07
2023-02-11T02:03:33.460Z,7.25
2023-02-11T02:06:03.952Z,6.22
2023-02-11T02:08:42.745Z,6.53
2023-02-11T02:11:09.452Z,5.88
2023-02-11T02:13:37.289Z,6.57
2023-02-11T02:16:09.937Z,6.15
2023-02-11T02:21:02.780Z,5.95
2023-02-11T02:23:35.224Z,6.03
2023-02-11T02:26:20.103Z,6.45
2023-02-11T02:28:55.939Z,5.78
2023-02-11T02:31:22.355Z,6.20
2023-02-11T02:33:54.605Z,5.82
2023-02-11T02:36:26.355Z,6.72
2023-02-11T02:38:58.659Z,6.07
2023-02-11T02:41:29.864Z,7.07
2023-02-11T02:43:56.218Z,5.53
2023-02-11T02:46:27.052Z,5.88
2023-02-11T02:48:54.340Z,6.25
2023-02-11T02:51:38.872Z,6.22
2023-02-11T02:54:24.036Z,6.53
2023-02-11T02:56:53.409Z,6.80
2023-02-11T02:59:42.661Z,5.68
2023-02-11T03:02:14.920Z,5.43
2023-02-11T03:04:47.285Z,7.22
2023-02-11T03:07:22.483Z,8.20
2023-02-11T03:09:56.924Z,6.13
2023-02-11T03:12:24.369Z,5.75
2023-02-11T03:14:51.519Z,6.05
2023-02-11T03:17:18.340Z,6.50
2023-02-11T03:19:46.603Z,6.15
2023-02-11T03:22:21.963Z,6.20
2023-02-11T03:24:48.876Z,6.95
2023-02-11T03:27:18.276Z,7.43
2023-02-11T03:30:03.328Z,7.55
2023-02-11T03:32:35.297Z,6.10
2023-02-11T03:35:05.106Z,7.00
2023-02-11T03:37:36.975Z,7.28
2023-02-11T03:40:06.500Z,7.07
2023-02-11T03:42:36.101Z,8.20
2023-02-11T03:45:10.124Z,7.93
2023-02-11T03:47:38.334Z,7.72
2023-02-11T03:50:06.218Z,7.32
2023-02-11T03:52:33.834Z,8.98
2023-02-11T03:55:00.788Z,9.27
2023-02-11T03:57:27.188Z,9.45
2023-02-11T03:59:55.270Z,9.38
2023-02-11T04:02:23.639Z,9.65
2023-02-11T04:04:50.108Z,10.95
2023-02-11T04:07:17.886Z,11.50
2023-02-11T04:09:44.341Z,10.43
2023-02-11T04:12:10.702Z,10.57
2023-02-11T04:14:37.261Z,11.70
2023-02-11T04:17:03.938Z,12.50
2023-02-11T04:19:30.292Z,13.65
2023-02-11T04:21:56.632Z,13.02
2023-02-11T04:24:23.108Z,14.20
2023-02-11T04:26:49.496Z,11.65
2023-02-11T04:29:16.976Z,11.73
2023-02-11T04:31:43.394Z,14.23
2023-02-11T04:34:09.728Z,13.38
2023-02-11T04:36:36.055Z,12.95
2023-02-11T04:39:02.415Z,14.60
2023-02-11T04:41:28.774Z,12.10
2023-02-11T04:43:55.314Z,13.02
2023-02-11T04:46:21.757Z,15.07
2023-02-11T04:48:48.232Z,13.98
2023-02-11T04:51:14.640Z,15.02
2023-02-11T04:53:41.158Z,16.45
2023-02-11T04:56:07.813Z,14.07
2023-02-11T04:58:34.403Z,14.57
2023-02-11T05:01:11.058Z,14.85
2023-02-11T05:03:37.555Z,16.27
2023-02-11T05:06:04.362Z,18.48
2023-02-11T05:08:30.726Z,14.45
2023-02-11T05:10:57.093Z,15.55
2023-02-11T05:13:23.509Z,15.10
2023-02-11T05:15:50.243Z,16.77
2023-02-11T05:18:16.912Z,16.20
2023-02-11T05:20:44.261Z,16.63
2023-02-11T05:23:10.903Z,16.25
2023-02-11T05:25:37.393Z,15.73
2023-02-11T05:28:04.431Z,17.35
2023-02-11T05:30:31.182Z,16.58
2023-02-11T05:32:58.335Z,17.02
2023-02-11T05:35:24.699Z,17.77
2023-02-11T05:37:51.269Z,18.27
2023-02-11T05:40:17.783Z,17.90
2023-02-11T05:42:44.196Z,17.90
2023-02-11T05:45:10.505Z,18.35
2023-02-11T05:47:36.797Z,18.48
2023-02-11T05:50:03.240Z,20.05
2023-02-11T05:52:29.572Z,18.27
2023-02-11T05:54:55.967Z,18.63
2023-02-11T05:57:22.264Z,23.25
2023-02-11T05:59:48.597Z,21.77
2023-02-11T06:02:15.089Z,19.75
2023-02-11T06:04:41.620Z,20.50
2023-02-11T06:07:07.930Z,20.98
2023-02-11T06:09:34.257Z,20.63
2023-02-11T06:12:00.652Z,20.92
2023-02-11T06:14:27.394Z,19.95
2023-02-11T06:16:53.726Z,21.08
2023-02-11T06:19:20.068Z,19.52
2023-02-11T06:21:46.547Z,21.27
2023-02-11T06:24:13.005Z,20.55
2023-02-11T06:26:39.406Z,22.08
2023-02-11T06:29:05.896Z,20.98
2023-02-11T06:31:32.314Z,21.65
2023-02-11T06:33:59.250Z,22.02
2023-02-11T06:36:25.711Z,21.95
2023-02-11T06:38:52.436Z,14.90
2023-02-11T06:41:20.297Z,23.42
2023-02-11T06:43:46.858Z,21.75
2023-02-11T06:46:13.292Z,24.17
2023-02-11T06:48:39.684Z,21.52
2023-02-11T06:51:07.228Z,22.05
2023-02-11T06:53:38.174Z,22.70
2023-02-11T06:56:05.358Z,22.42
2023-02-11T06:58:32.011Z,22.02
2023-02-11T07:00:58.316Z,23.38
2023-02-11T07:03:24.762Z,22.35
2023-02-11T07:05:51.344Z,22.25
2023-02-11T07:08:17.959Z,22.27
2023-02-11T07:10:44.327Z,22.10
2023-02-11T07:13:10.644Z,22.08
2023-02-11T07:15:37.320Z,22.33
2023-02-11T07:18:05.868Z,21.65
2023-02-11T07:20:32.173Z,22.52
2023-02-11T07:23:00.136Z,23.52
2023-02-11T07:25:26.549Z,24.80
2023-02-11T07:27:52.906Z,23.67
2023-02-11T07:30:19.277Z,23.77
2023-02-11T07:32:45.700Z,24.75
2023-02-11T07:35:12.112Z,23.77
2023-02-11T07:37:38.577Z,24.67
2023-02-11T07:40:05.130Z,25.55
2023-02-11T07:42:31.452Z,24.27
2023-02-11T07:44:57.982Z,24.33
2023-02-11T07:47:24.316Z,24.33
2023-02-11T07:49:50.730Z,24.00
2023-02-11T07:52:17.090Z,22.98
2023-02-11T07:54:43.432Z,23.92
2023-02-11T07:57:09.768Z,22.23
2023-02-11T07:59:36.092Z,23.90
2023-02-11T08:02:03.073Z,19.30
2023-02-11T08:04:29.465Z,24.15
2023-02-11T08:06:59.083Z,23.10
2023-02-11T08:09:25.846Z,23.92
2023-02-11T08:11:53.415Z,23.33
2023-02-11T08:14:20.502Z,26.10
2023-02-11T08:16:49.095Z,23.05
2023-02-11T08:19:16.182Z,24.73
2023-02-11T08:21:43.251Z,23.42
2023-02-11T08:24:10.170Z,23.90
2023-02-11T08:26:36.634Z,25.00
2023-02-11T08:29:08.153Z,25.02
2023-02-11T08:31:36.188Z,22.05
2023-02-11T08:34:02.662Z,23.45
2023-02-11T08:36:30.284Z,24.15
2023-02-11T08:39:18.057Z,22.98
2023-02-11T08:41:46.332Z,20.40
2023-02-11T08:44:12.687Z,22.50
2023-02-11T08:46:39.363Z,22.95
2023-02-11T08:49:07.209Z,21.25
2023-02-11T08:51:33.672Z,21.63
2023-02-11T08:54:00.637Z,24.63
2023-02-11T08:56:27.416Z,21.73
2023-02-11T08:58:53.908Z,20.85
2023-02-11T09:01:23.072Z,21.42
2023-02-11T09:03:54.719Z,22.13
2023-02-11T09:06:22.380Z,22.63
2023-02-11T09:08:50.267Z,21.52
2023-02-11T09:11:17.563Z,20.45
2023-02-11T09:13:44.648Z,21.27
2023-02-11T09:16:37.482Z,21.02
2023-02-11T09:19:04.667Z,21.23
2023-02-11T09:21:31.026Z,21.10
2023-02-11T09:23:57.530Z,20.77
2023-02-11T09:26:28.225Z,21.10
2023-02-11T09:28:54.726Z,19.92
2023-02-11T09:31:25.790Z,20.80
2023-02-11T09:33:53.664Z,20.45
2023-02-11T09:36:28.775Z,18.35
2023-02-11T09:38:55.960Z,19.33
2023-02-11T09:41:25.357Z,18.58
2023-02-11T09:43:53.304Z,18.13
2023-02-11T09:46:20.338Z,17.25
2023-02-11T09:48:48.908Z,17.63
2023-02-11T09:51:27.397Z,17.33
2023-02-11T09:54:00.410Z,17.75
2023-02-11T09:56:29.062Z,15.57
2023-02-11T09:58:55.459Z,16.80
2023-02-11T10:01:37.203Z,10.68
2023-02-11T10:04:22.246Z,16.67
2023-02-11T10:06:54.029Z,15.93
2023-02-11T10:09:26.446Z,16.67
2023-02-11T10:12:01.864Z,17.75
2023-02-11T10:14:47.256Z,16.65
2023-02-11T10:17:30.736Z,16.63
2023-02-11T10:20:16.814Z,16.48
2023-02-11T10:22:49.319Z,16.02
2023-02-11T10:25:26.394Z,15.65
2023-02-11T10:27:54.519Z,15.25
2023-02-11T10:30:31.697Z,20.60
2023-02-11T10:33:04.263Z,14.38
2023-02-11T10:35:31.788Z,14.63
2023-02-11T10:37:59.252Z,14.98
2023-02-11T10:40:27.747Z,16.27
2023-02-11T10:42:55.765Z,15.00
2023-02-11T10:45:24.918Z,14.57
2023-02-11T10:47:53.740Z,12.15
2023-02-11T10:50:23.263Z,14.98
2023-02-11T10:52:49.741Z,13.30
2023-02-11T10:55:20.961Z,12.43
2023-02-11T10:57:53.024Z,13.73
2023-02-11T11:00:38.800Z,15.02
2023-02-11T11:03:25.529Z,14.25
2023-02-11T11:05:56.649Z,13.10
2023-02-11T11:08:37.951Z,13.45
2023-02-11T11:11:06.552Z,12.35
2023-02-11T11:13:34.181Z,14.25
2023-02-11T11:16:08.175Z,13.95
2023-02-11T11:18:34.589Z,14.23
2023-02-11T11:21:02.597Z,13.52
2023-02-11T11:23:30.593Z,12.50
2023-02-11T11:26:17.197Z,13.32
2023-02-11T11:28:49.481Z,11.77
2023-02-11T11:31:19.361Z,10.77
2023-02-11T11:33:47.137Z,11.57
2023-02-11T11:36:15.665Z,12.30
2023-02-11T11:38:56.286Z,11.35
2023-02-11T11:41:32.553Z,11.35
2023-02-11T11:43:59.212Z,11.68
2023-02-11T11:46:35.386Z,11.80
2023-02-11T11:49:20.539Z,10.10
2023-02-11T11:51:54.769Z,9.85
2023-02-11T11:54:21.785Z,10.32
2023-02-11T11:56:54.749Z,9.50
2023-02-11T11:59:23.768Z,10.45
2023-02-11T12:01:58.950Z,9.52
2023-02-11T12:04:28.149Z,8.38
2023-02-11T12:07:02.191Z,8.32
2023-02-11T12:09:31.314Z,8.40
2023-02-11T12:12:10.389Z,7.55
2023-02-11T12:14:46.623Z,8.05
2023-02-11T12:17:31.612Z,8.07
2023-02-11T12:20:20.373Z,7.28
2023-02-11T12:22:57.006Z,6.20
2023-02-11T12:25:35.891Z,8.70
2023-02-11T12:28:24.319Z,7.63
2023-02-11T12:30:51.473Z,7.35
2023-02-11T12:33:26.503Z,7.60
2023-02-11T12:36:15.339Z,6.35
2023-02-11T12:39:02.371Z,7.28
2023-02-11T12:41:57.561Z,6.70
2023-02-11T12:44:37.255Z,6.55
2023-02-11T12:47:15.273Z,5.93
2023-02-11T12:49:41.584Z,6.32
2023-02-11T12:52:10.752Z,6.53
2023-02-11T12:54:52.158Z,6.75
2023-02-11T12:57:22.431Z,5.88
2023-02-11T13:02:22.530Z,5.93
2023-02-11T13:04:59.867Z,6.43
2023-02-11T13:07:29.619Z,6.85
2023-02-11T13:10:00.494Z,5.57
2023-02-11T13:12:48.166Z,5.72
2023-02-11T13:15:15.126Z,5.63
2023-02-11T13:17:50.881Z,6.05
2023-02-11T13:20:26.722Z,5.80
2023-02-11T13:23:15.580Z,5.63
2023-02-11T13:26:01.205Z,5.55
2023-02-11T13:28:46.614Z,6.13
2023-02-11T13:31:16.018Z,5.70
2023-02-11T13:33:44.354Z,5.45
2023-02-11T13:36:12.357Z,6.88
2023-02-11T13:38:39.215Z,5.45
2023-02-11T13:41:06.004Z,5.68
2023-02-11T13:43:37.272Z,5.72
2023-02-11T13:46:04.117Z,6.15
2023-02-11T13:48:45.123Z,5.60
2023-02-11T13:51:13.368Z,5.95
2023-02-11T13:53:50.755Z,5.88
2023-02-11T13:56:29.960Z,6.13
2023-02-11T13:59:02.310Z,6.07
2023-02-11T14:02:07.309Z,6.10
2023-02-11T14:04:52.701Z,6.20
2023-02-11T14:07:50.707Z,6.18
2023-02-11T14:10:35.545Z,5.75
2023-02-11T14:13:20.747Z,5.57
2023-02-11T14:15:47.105Z,6.35
2023-02-11T14:18:32.287Z,6.43
2023-02-11T14:21:11.723Z,7.55
2023-02-11T14:23:40.930Z,6.05
2023-02-11T14:26:37.661Z,5.70
2023-02-11T14:29:15.796Z,6.50
2023-02-11T14:31:46.970Z,6.15
2023-02-11T14:34:16.438Z,6.63
2023-02-11T14:36:44.895Z,7.03
2023-02-11T14:39:34.349Z,6.50
2023-02-11T14:42:01.707Z,6.32
2023-02-11T14:44:30.756Z,6.07
2023-02-11T14:46:58.004Z,6.13
2023-02-11T14:49:42.740Z,6.53
2023-02-11T14:52:27.746Z,5.78
2023-02-11T14:55:01.229Z,6.43
2023-02-11T14:57:28.051Z,5.63
2023-02-11T15:00:04.473Z,6.47
2023-02-11T15:02:37.966Z,7.28
2023-02-11T15:05:23.516Z,5.50
2023-02-11T15:07:52.384Z,5.85
2023-02-11T15:10:23.835Z,6.30
2023-02-11T15:12:50.319Z,5.93
2023-02-11T15:15:16.955Z,6.47
2023-02-11T15:17:44.403Z,6.25
2023-02-11T15:20:22.665Z,5.80
2023-02-11T15:22:50.377Z,6.65
2023-02-11T15:25:20.162Z,5.95
2023-02-11T15:27:48.315Z,6.22
2023-02-11T15:30:23.820Z,5.78
2023-02-11T15:32:57.932Z,6.90
2023-02-11T15:35:25.485Z,6.30
2023-02-11T15:37:51.945Z,7.07
2023-02-11T15:40:22.971Z,6.47
2023-02-11T15:42:55.068Z,5.78
2023-02-11T15:45:28.814Z,6.57
2023-02-11T15:47:57.663Z,6.40
2023-02-11T15:50:25.558Z,6.65
2023-02-11T15:52:52.589Z,6.80
2023-02-11T15:55:19.757Z,5.88
2023-02-11T15:57:49.086Z,6.80
2023-02-11T16:00:17.449Z,6.65
2023-02-11T16:02:45.672Z,6.68
2023-02-11T16:05:25.453Z,5.95
2023-02-11T16:07:53.922Z,6.85
2023-02-11T16:10:29.498Z,6.97
2023-02-11T16:13:00.104Z,7.43
2023-02-11T16:15:30.448Z,7.00
2023-02-11T16:17:57.060Z,6.38
2023-02-11T16:20:23.652Z,6.90
2023-02-11T16:22:50.047Z,6.78
2023-02-11T16:25:19.066Z,6.43
2023-02-11T16:27:48.485Z,6.78
2023-02-11T16:30:24.176Z,6.50
2023-02-11T16:32:52.414Z,6.72
2023-02-11T16:35:18.784Z,7.22
2023-02-11T16:37:45.134Z,7.53
2023-02-11T16:40:12.332Z,6.57
2023-02-11T16:42:38.718Z,7.20
2023-02-11T16:45:05.338Z,6.60
2023-02-11T16:47:32.052Z,6.43
2023-02-11T16:49:58.650Z,6.80
2023-02-11T16:52:25.402Z,6.22
2023-02-11T16:54:51.763Z,7.88
2023-02-11T16:57:20.272Z,5.68
2023-02-11T16:59:47.258Z,6.50
2023-02-11T17:02:25.353Z,5.85
2023-02-11T17:04:55.406Z,6.75
2023-02-11T17:07:22.906Z,7.25
2023-02-11T17:09:49.318Z,7.00
2023-02-11T17:12:15.653Z,7.63
2023-02-11T17:14:41.983Z,7.25
2023-02-11T17:17:09.075Z,6.80
2023-02-11T17:19:35.404Z,6.82
2023-02-11T17:22:01.793Z,6.90
2023-02-11T17:24:28.296Z,7.15
2023-02-11T17:26:54.958Z,6.68
2023-02-11T17:29:23.463Z,6.88
2023-02-11T17:31:51.748Z,7.18
2023-02-11T17:34:18.957Z,6.72
2023-02-11T17:36:45.352Z,6.85
2023-02-11T17:39:12.041Z,6.90
2023-02-11T17:41:39.418Z,7.18
2023-02-11T17:44:06.694Z,7.68
2023-02-11T17:46:34.336Z,7.82
2023-02-11T17:49:01.853Z,7.70
2023-02-11T17:51:31.015Z,7.43
2023-02-11T17:53:59.558Z,7.50
2023-02-11T17:56:25.943Z,8.27
2023-02-11T17:58:53.148Z,7.57
2023-02-11T18:01:19.842Z,7.18
2023-02-11T18:03:46.284Z,8.23
2023-02-11T18:06:12.655Z,8.90
2023-02-11T18:08:39.131Z,8.35
2023-02-11T18:11:08.915Z,9.25
2023-02-11T18:13:35.291Z,8.63
2023-02-11T18:16:02.490Z,8.90
2023-02-11T18:18:31.109Z,8.38
2023-02-11T18:21:01.863Z,9.15
2023-02-11T18:23:28.258Z,9.55
2023-02-11T18:25:54.638Z,9.25
2023-02-11T18:28:21.063Z,8.48
2023-02-11T18:30:47.499Z,9.40
2023-02-11T18:33:15.495Z,9.23
2023-02-11T18:35:49.218Z,9.70
2023-02-11T18:38:15.701Z,10.20
2023-02-11T18:40:42.228Z,9.55
2023-02-11T18:43:08.558Z,10.93
2023-02-11T18:45:35.048Z,10.23
2023-02-11T18:48:03.641Z,10.50
2023-02-11T18:50:30.080Z,10.65
2023-02-11T18:52:56.428Z,10.60
2023-02-11T18:55:25.667Z,10.25
2023-02-11T18:57:52.871Z,9.73
2023-02-11T19:00:20.153Z,10.73
2023-02-11T19:02:46.485Z,10.52
2023-02-11T19:05:12.892Z,11.23
2023-02-11T19:07:39.271Z,10.80
2023-02-11T19:10:06.622Z,11.65
2023-02-11T19:12:33.196Z,11.00
2023-02-11T19:15:00.889Z,11.23
2023-02-11T19:17:27.391Z,10.75
2023-02-11T19:19:53.824Z,11.80
2023-02-11T19:22:20.311Z,11.10
2023-02-11T19:24:46.807Z,11.27
2023-02-11T19:27:13.228Z,10.88
2023-02-11T19:29:39.765Z,12.23
2023-02-11T19:32:06.470Z,12.40
2023-02-11T19:34:33.383Z,11.48
2023-02-11T19:37:01.480Z,11.45
2023-02-11T19:39:27.917Z,13.13
2023-02-11T19:41:54.326Z,11.27
2023-02-11T19:44:20.668Z,11.48
2023-02-11T19:46:48.310Z,12.60
2023-02-11T19:49:16.385Z,11.15
2023-02-11T19:51:45.536Z,10.77
2023-02-11T19:54:12.238Z,11.05
2023-02-11T19:56:38.644Z,10.90
2023-02-11T19:59:05.156Z,10.77
2023-02-11T20:01:31.667Z,10.60
2023-02-11T20:03:59.459Z,10.48
2023-02-11T20:06:28.932Z,10.45
2023-02-11T20:09:00.060Z,10.00
2023-02-11T20:11:28.347Z,10.95
2023-02-11T20:13:54.975Z,10.52
2023-02-11T20:16:23.153Z,10.45
2023-02-11T20:18:53.536Z,10.45
2023-02-11T20:21:21.285Z,10.43
2023-02-11T20:23:48.629Z,11.07
2023-02-11T20:26:17.532Z,10.02
2023-02-11T20:28:44.302Z,11.15
2023-02-11T20:31:13.057Z,11.32
2023-02-11T20:33:41.088Z,10.02
2023-02-11T20:36:12.694Z,8.95
2023-02-11T20:38:39.127Z,10.93
2023-02-11T20:41:09.392Z,10.52
2023-02-11T20:43:37.972Z,10.23
2023-02-11T20:46:05.603Z,9.82
2023-02-11T20:48:33.033Z,8.82
2023-02-11T20:51:03.876Z,10.10
2023-02-11T20:53:30.241Z,8.80
2023-02-11T20:55:58.495Z,9.77
2023-02-11T20:58:25.058Z,10.20
2023-02-11T21:00:51.437Z,9.77
2023-02-11T21:03:17.850Z,9.52
2023-02-11T21:05:44.172Z,10.48
2023-02-11T21:08:10.563Z,9.82
2023-02-11T21:10:36.951Z,11.02
2023-02-11T21:13:03.534Z,9.77
2023-02-11T21:15:33.744Z,10.30
2023-02-11T21:18:00.218Z,10.43
2023-02-11T21:20:26.629Z,16.38
2023-02-11T21:22:52.924Z,18.67
2023-02-11T21:25:20.379Z,10.60
2023-02-11T21:27:46.780Z,10.38
2023-02-11T21:30:15.556Z,11.20
2023-02-11T21:32:42.024Z,10.05
2023-02-11T21:35:09.384Z,10.07
2023-02-11T21:37:35.772Z,10.23
2023-02-11T21:40:02.196Z,10.18
2023-02-11T21:42:28.613Z,15.90
2023-02-11T21:44:54.997Z,13.27
2023-02-11T21:47:21.356Z,11.32
2023-02-11T21:49:47.813Z,11.10
2023-02-11T21:52:14.974Z,10.05
2023-02-11T21:54:41.461Z,10.07
2023-02-11T21:57:07.802Z,10.55
2023-02-11T21:59:34.146Z,11.15
2023-02-11T22:02:01.881Z,10.23
2023-02-11T22:04:28.591Z,10.25
2023-02-11T22:06:57.220Z,10.52
2023-02-11T22:09:23.532Z,10.55
2023-02-11T22:11:50.187Z,10.50
2023-02-11T22:14:17.048Z,11.55
2023-02-11T22:16:46.568Z,10.57
2023-02-11T22:19:15.278Z,10.73
2023-02-11T22:21:43.331Z,10.88
2023-02-11T22:24:09.820Z,11.00
2023-02-11T22:26:36.334Z,11.80
2023-02-11T22:29:03.175Z,11.15
2023-02-11T22:31:31.568Z,10.80
2023-02-11T22:33:58.607Z,11.05
2023-02-11T22:36:29.956Z,11.43
2023-02-11T22:38:56.504Z,11.30
2023-02-11T22:41:23.043Z,11.50
2023-02-11T22:43:49.417Z,11.85
2023-02-11T22:46:17.355Z,12.30
2023-02-11T22:48:44.441Z,12.27
2023-02-11T22:51:13.233Z,12.05
2023-02-11T22:53:39.849Z,11.77
2023-02-11T22:56:10.302Z,11.55
2023-02-11T22:58:36.666Z,9.73
2023-02-11T23:01:04.274Z,11.68
2023-02-11T23:03:31.322Z,12.60
2023-02-11T23:06:00.216Z,12.32
2023-02-11T23:08:27.639Z,12.60
2023-02-11T23:10:56.904Z,14.82
2023-02-11T23:13:23.263Z,12.80
2023-02-11T23:15:49.648Z,13.00
2023-02-11T23:18:16.028Z,12.45
2023-02-11T23:20:43.064Z,13.63
2023-02-11T23:23:09.523Z,14.30
2023-02-11T23:25:40.668Z,13.75
2023-02-11T23:28:07.113Z,13.18
2023-02-11T23:30:33.465Z,13.32
2023-02-11T23:32:59.755Z,13.57
2023-02-11T23:35:26.122Z,13.05
2023-02-11T23:37:52.916Z,14.68
2023-02-11T23:40:20.079Z,13.95
2023-02-11T23:42:49.714Z,14.38
2023-02-11T23:45:16.096Z,14.40
2023-02-11T23:47:42.905Z,15.00
2023-02-11T23:50:09.600Z,14.18
2023-02-11T23:52:35.954Z,14.55
2023-02-11T23:55:02.319Z,14.73
2023-02-11T23:57:28.785Z,15.63
2023-02-11T23:59:55.115Z,14.82
